Аэропорт: Уральск. Уральск

ICAO: UARR

METAR:
2019-11-21 09:30:00
UARR 210930Z 34005MPS CAVOK M09/M16 Q1049 R04/CLRD70 NOSIG RMK QFE783/1045
METAR:
2019-11-21 08:00:00
TAF UARR 210800Z 2109/2118 02005MPS 9999 SCT033